createdAt,value
2022-10-22T00:01:05.147Z,17.65
2022-10-22T00:03:32.946Z,19.50
2022-10-22T00:06:00.556Z,18.73
2022-10-22T00:08:28.731Z,19.67
2022-10-22T00:10:56.378Z,17.33
2022-10-22T00:13:24.319Z,18.73
2022-10-22T00:15:51.752Z,17.52
2022-10-22T00:18:19.207Z,14.13
2022-10-22T00:20:46.992Z,17.88
2022-10-22T00:23:14.519Z,16.20
2022-10-22T00:25:42.056Z,17.88
2022-10-22T00:28:11.536Z,15.32
2022-10-22T00:30:39.031Z,20.75
2022-10-22T00:33:06.739Z,16.63
2022-10-22T00:35:34.279Z,15.73
2022-10-22T00:38:02.184Z,17.15
2022-10-22T00:40:30.332Z,17.52
2022-10-22T00:42:57.927Z,15.93
2022-10-22T00:45:27.445Z,16.75
2022-10-22T00:48:05.787Z,16.02
2022-10-22T00:50:35.780Z,16.63
2022-10-22T00:53:08.577Z,20.55
2022-10-22T00:55:36.862Z,16.73
2022-10-22T00:58:04.442Z,17.70
2022-10-22T01:00:32.171Z,19.23
2022-10-22T01:02:59.813Z,16.88
2022-10-22T01:05:30.717Z,15.75
2022-10-22T01:07:58.315Z,18.48
2022-10-22T01:11:07.521Z,17.15
2022-10-22T01:13:49.269Z,16.42
2022-10-22T01:16:33.314Z,17.08
2022-10-22T01:19:09.063Z,17.13
2022-10-22T01:21:43.934Z,17.10
2022-10-22T01:24:23.228Z,15.85
2022-10-22T01:27:10.328Z,17.30
2022-10-22T01:29:43.952Z,17.33
2022-10-22T01:32:16.963Z,17.80
2022-10-22T01:34:50.478Z,20.30
2022-10-22T01:37:20.720Z,20.13
2022-10-22T01:39:49.668Z,15.75
2022-10-22T01:42:17.515Z,17.48
2022-10-22T01:44:45.003Z,16.60
2022-10-22T01:47:33.007Z,18.63
2022-10-22T01:50:07.371Z,15.15
2022-10-22T01:52:38.366Z,20.13
2022-10-22T01:55:33.142Z,19.35
2022-10-22T01:58:03.657Z,15.48
2022-10-22T02:00:31.461Z,15.57
2022-10-22T02:03:01.938Z,19.42
2022-10-22T02:05:44.298Z,21.25
2022-10-22T02:08:23.446Z,17.23
2022-10-22T02:10:51.565Z,17.15
2022-10-22T02:13:25.036Z,16.23
2022-10-22T02:15:53.352Z,20.85
2022-10-22T02:18:26.326Z,18.70
2022-10-22T02:20:54.669Z,17.92
2022-10-22T02:23:22.974Z,18.27
2022-10-22T02:25:56.273Z,24.92
2022-10-22T02:28:37.831Z,17.92
2022-10-22T02:31:27.965Z,20.65
2022-10-22T02:33:57.935Z,19.48
2022-10-22T02:36:26.163Z,19.98
2022-10-22T02:38:54.723Z,22.20
2022-10-22T02:41:23.236Z,20.10
2022-10-22T02:43:54.603Z,20.50
2022-10-22T02:46:23.609Z,18.67
2022-10-22T02:48:51.477Z,19.67
2022-10-22T02:51:19.005Z,25.08
2022-10-22T02:53:46.616Z,23.55
2022-10-22T02:56:16.855Z,21.10
2022-10-22T02:58:44.459Z,18.48
2022-10-22T03:01:15.263Z,17.70
2022-10-22T03:03:43.881Z,20.50
2022-10-22T03:06:11.784Z,21.15
2022-10-22T03:08:41.050Z,19.40
2022-10-22T03:11:08.641Z,18.33
2022-10-22T03:13:36.649Z,19.50
2022-10-22T03:16:04.287Z,22.50
2022-10-22T03:18:31.890Z,22.35
2022-10-22T03:21:06.128Z,18.35
2022-10-22T03:23:33.978Z,520.97
2022-10-22T03:26:01.948Z,156.10
2022-10-22T03:28:29.671Z,188.25
2022-10-22T03:30:57.134Z,122.63
2022-10-22T03:33:24.616Z,70.95
2022-10-22T03:35:52.176Z,24.77
2022-10-22T03:38:19.824Z,24.73
2022-10-22T03:40:48.025Z,75.90
2022-10-22T03:43:16.315Z,152.35
2022-10-22T03:45:43.919Z,113.80
2022-10-22T03:48:11.463Z,145.20
2022-10-22T03:50:40.027Z,135.63
2022-10-22T03:53:10.553Z,67.70
2022-10-22T03:55:41.171Z,41.15
2022-10-22T03:58:08.691Z,32.80
2022-10-22T04:00:36.769Z,30.80
2022-10-22T04:03:04.223Z,34.03
2022-10-22T04:05:33.780Z,42.13
2022-10-22T04:08:01.346Z,43.72
2022-10-22T04:10:29.458Z,41.40
2022-10-22T04:12:57.063Z,35.47
2022-10-22T04:15:26.887Z,35.13
2022-10-22T04:17:54.696Z,29.27
2022-10-22T04:20:22.251Z,32.55
2022-10-22T04:22:49.765Z,27.95
2022-10-22T04:25:17.238Z,30.45
2022-10-22T04:27:44.788Z,27.75
2022-10-22T04:30:17.825Z,29.80
2022-10-22T04:32:45.342Z,46.83
2022-10-22T04:35:12.868Z,57.22
2022-10-22T04:37:40.563Z,150.20
2022-10-22T04:40:08.786Z,110.68
2022-10-22T04:42:36.200Z,186.80
2022-10-22T04:45:04.273Z,216.82
2022-10-22T04:47:31.743Z,134.82
2022-10-22T04:49:59.175Z,99.13
2022-10-22T04:52:26.641Z,82.65
2022-10-22T04:54:54.198Z,62.08
2022-10-22T04:57:21.738Z,34.38
2022-10-22T04:59:49.532Z,29.42
2022-10-22T05:02:17.214Z,45.83
2022-10-22T05:04:44.812Z,58.13
2022-10-22T05:07:12.284Z,120.85
2022-10-22T05:09:39.953Z,165.32
2022-10-22T05:12:07.462Z,190.98
2022-10-22T05:14:34.934Z,112.07
2022-10-22T05:17:02.379Z,64.50
2022-10-22T05:19:31.162Z,44.70
2022-10-22T05:22:01.180Z,68.88
2022-10-22T05:24:29.968Z,59.38
2022-10-22T05:26:59.214Z,74.43
2022-10-22T05:29:27.358Z,61.72
2022-10-22T05:31:55.273Z,68.18
2022-10-22T05:34:23.157Z,63.40
2022-10-22T05:36:51.027Z,58.70
2022-10-22T05:39:18.590Z,54.03
2022-10-22T05:41:46.021Z,40.85
2022-10-22T05:44:13.902Z,179.75
2022-10-22T05:46:43.312Z,244.02
2022-10-22T05:49:13.624Z,184.48
2022-10-22T05:51:41.485Z,155.05
2022-10-22T05:54:14.535Z,165.48
2022-10-22T05:56:41.988Z,185.43
2022-10-22T05:59:10.984Z,167.48
2022-10-22T06:01:39.584Z,158.60
2022-10-22T06:04:10.167Z,148.80
2022-10-22T06:06:46.988Z,96.88
2022-10-22T06:09:25.460Z,81.55
2022-10-22T06:11:53.322Z,60.67
2022-10-22T06:14:21.464Z,51.33
2022-10-22T06:16:50.090Z,42.72
2022-10-22T06:19:19.851Z,40.67
2022-10-22T06:21:47.967Z,48.33
2022-10-22T06:24:15.903Z,49.25
2022-10-22T06:26:43.887Z,62.13
2022-10-22T06:29:11.586Z,138.65
2022-10-22T06:31:39.203Z,68.57
2022-10-22T06:34:10.294Z,94.78
2022-10-22T06:36:38.022Z,94.30
2022-10-22T06:39:05.739Z,125.85
2022-10-22T06:41:33.333Z,139.20
2022-10-22T06:44:01.007Z,174.32
2022-10-22T06:46:28.531Z,75.30
2022-10-22T06:49:03.122Z,52.33
2022-10-22T06:51:30.607Z,58.65
2022-10-22T06:53:59.588Z,60.33
2022-10-22T06:56:29.373Z,43.67
2022-10-22T06:58:58.371Z,46.13
2022-10-22T07:01:32.323Z,43.60
2022-10-22T07:04:00.404Z,27.58
2022-10-22T07:06:29.059Z,30.90
2022-10-22T07:08:58.516Z,35.47
2022-10-22T07:11:45.658Z,27.83
2022-10-22T07:14:14.321Z,36.47
2022-10-22T07:16:43.154Z,31.65
2022-10-22T07:19:11.235Z,24.35
2022-10-22T07:21:39.814Z,25.25
2022-10-22T07:24:07.767Z,25.00
2022-10-22T07:26:35.376Z,22.27
2022-10-22T07:29:04.356Z,23.50
2022-10-22T07:31:34.194Z,23.83
2022-10-22T07:34:02.931Z,23.67
2022-10-22T07:36:30.448Z,22.20
2022-10-22T07:38:59.733Z,20.08
2022-10-22T07:41:29.630Z,22.73
2022-10-22T07:43:58.514Z,19.35
2022-10-22T07:46:26.933Z,19.67
2022-10-22T07:48:54.838Z,20.73
2022-10-22T07:51:23.118Z,20.35
2022-10-22T07:53:50.631Z,19.65
2022-10-22T07:56:18.128Z,19.40
2022-10-22T07:58:45.733Z,19.88
2022-10-22T08:01:13.425Z,18.05
2022-10-22T08:03:40.977Z,17.42
2022-10-22T08:06:10.248Z,18.95
2022-10-22T08:08:37.800Z,19.05
2022-10-22T08:11:05.591Z,18.27
2022-10-22T08:13:33.113Z,19.83
2022-10-22T08:16:00.756Z,20.67
2022-10-22T08:18:28.941Z,26.55
2022-10-22T08:20:57.361Z,20.00
2022-10-22T08:23:27.728Z,21.13
2022-10-22T08:25:57.492Z,22.92
2022-10-22T08:28:25.138Z,24.02
2022-10-22T08:30:52.665Z,22.45
2022-10-22T08:33:20.511Z,21.17
2022-10-22T08:35:52.093Z,21.63
2022-10-22T08:38:19.853Z,22.10
2022-10-22T08:40:54.108Z,20.92
2022-10-22T08:44:06.907Z,23.23
2022-10-22T08:46:43.480Z,23.27
2022-10-22T08:49:39.841Z,19.70
2022-10-22T08:52:16.094Z,27.25
2022-10-22T08:54:57.500Z,18.98
2022-10-22T08:58:02.689Z,31.30
2022-10-22T09:00:59.458Z,23.67
2022-10-22T09:03:44.923Z,22.77
2022-10-22T09:06:18.390Z,19.85
2022-10-22T09:08:47.580Z,20.67
2022-10-22T09:11:30.400Z,24.85
2022-10-22T09:13:59.695Z,22.40
2022-10-22T09:16:37.763Z,28.10
2022-10-22T09:19:24.395Z,22.85
2022-10-22T09:22:10.053Z,18.83
2022-10-22T09:24:39.521Z,21.08
2022-10-22T09:27:26.020Z,27.55
2022-10-22T09:29:53.551Z,27.30
2022-10-22T09:32:21.169Z,24.80
2022-10-22T09:34:49.869Z,23.13
2022-10-22T09:37:19.743Z,23.45
2022-10-22T09:39:53.165Z,19.95
2022-10-22T09:42:22.249Z,24.17
2022-10-22T09:45:00.075Z,25.13
2022-10-22T09:47:43.306Z,20.52
2022-10-22T09:50:37.130Z,27.23
2022-10-22T09:53:11.349Z,32.22
2022-10-22T09:55:41.697Z,22.08
2022-10-22T09:58:14.016Z,24.85
2022-10-22T10:00:45.862Z,25.02
2022-10-22T10:03:23.021Z,23.77
2022-10-22T10:05:54.797Z,25.52
2022-10-22T10:08:23.139Z,27.17
2022-10-22T10:10:59.894Z,22.00
2022-10-22T10:13:34.528Z,26.02
2022-10-22T10:16:27.931Z,25.27
2022-10-22T10:19:21.431Z,21.63
2022-10-22T10:22:05.377Z,26.88
2022-10-22T10:25:02.848Z,20.23
2022-10-22T10:28:17.969Z,19.13
2022-10-22T10:30:59.510Z,23.95
2022-10-22T10:33:41.614Z,20.77
2022-10-22T10:36:36.192Z,23.98
2022-10-22T10:39:12.906Z,22.73
2022-10-22T10:42:12.666Z,27.58
2022-10-22T10:44:57.501Z,22.92
2022-10-22T10:47:43.534Z,23.08
2022-10-22T10:50:17.131Z,22.08
2022-10-22T10:52:53.593Z,37.10
2022-10-22T10:55:32.892Z,26.00
2022-10-22T10:58:23.523Z,35.65
2022-10-22T11:00:59.714Z,25.20
2022-10-22T11:03:34.943Z,27.83
2022-10-22T11:06:08.219Z,22.90
2022-10-22T11:08:50.038Z,25.27
2022-10-22T11:11:36.696Z,25.25
2022-10-22T11:14:40.718Z,24.83
2022-10-22T11:17:16.078Z,25.65
2022-10-22T11:20:13.995Z,22.17
2022-10-22T11:23:18.859Z,26.20
2022-10-22T11:25:49.962Z,24.70
2022-10-22T11:28:25.723Z,28.13
2022-10-22T11:31:00.421Z,30.98
2022-10-22T11:33:40.258Z,28.40
2022-10-22T11:36:12.746Z,27.73
2022-10-22T11:38:40.309Z,31.40
2022-10-22T11:41:13.799Z,26.35
2022-10-22T11:44:04.956Z,29.83
2022-10-22T11:47:10.276Z,30.48
2022-10-22T11:50:25.759Z,40.65
2022-10-22T11:53:08.403Z,58.00
2022-10-22T11:55:55.562Z,25.63
2022-10-22T11:58:28.958Z,26.98
2022-10-22T12:01:02.185Z,27.42
2022-10-22T12:03:32.973Z,25.35
2022-10-22T12:06:12.369Z,24.02
2022-10-22T12:08:48.890Z,24.30
2022-10-22T12:11:20.216Z,26.15
2022-10-22T12:14:19.837Z,28.92
2022-10-22T12:16:57.311Z,28.38
2022-10-22T12:19:28.220Z,25.50
2022-10-22T12:22:02.289Z,22.38
2022-10-22T12:24:35.613Z,29.92
2022-10-22T12:27:05.701Z,24.17
2022-10-22T12:29:33.743Z,24.17
2022-10-22T12:32:06.104Z,25.20
2022-10-22T12:34:33.691Z,24.80
2022-10-22T12:37:05.165Z,26.45
2022-10-22T12:39:35.458Z,32.35
2022-10-22T12:42:05.276Z,22.70
2022-10-22T12:44:33.259Z,29.17
2022-10-22T12:47:00.796Z,28.58
2022-10-22T12:49:44.117Z,31.58
2022-10-22T12:52:17.652Z,26.73
2022-10-22T12:54:49.389Z,27.98
2022-10-22T12:57:19.631Z,33.58
2022-10-22T12:59:50.240Z,32.13
2022-10-22T13:02:27.407Z,30.77
2022-10-22T13:05:16.349Z,24.17
2022-10-22T13:08:03.670Z,25.42
2022-10-22T13:10:35.343Z,27.45
2022-10-22T13:13:06.828Z,28.30
2022-10-22T13:15:37.863Z,34.97
2022-10-22T13:18:19.415Z,41.92
2022-10-22T13:20:57.516Z,47.40
2022-10-22T13:23:28.134Z,43.28
2022-10-22T13:25:59.256Z,37.25
2022-10-22T13:28:27.762Z,58.50
2022-10-22T13:31:01.058Z,61.25
2022-10-22T13:33:36.570Z,37.90
2022-10-22T13:36:05.321Z,89.60
2022-10-22T13:38:33.090Z,34.72
2022-10-22T13:41:03.140Z,37.45
2022-10-22T13:43:30.844Z,36.70
2022-10-22T13:46:00.067Z,30.38
2022-10-22T13:48:32.960Z,30.75
2022-10-22T13:51:00.485Z,28.10
2022-10-22T13:53:30.338Z,59.80
2022-10-22T13:55:57.851Z,53.33
2022-10-22T13:58:25.683Z,29.92
2022-10-22T14:00:57.163Z,50.28
2022-10-22T14:03:35.723Z,33.03
2022-10-22T14:06:03.360Z,44.75
2022-10-22T14:08:32.021Z,54.13
2022-10-22T14:10:59.582Z,45.10
2022-10-22T14:13:28.417Z,46.47
2022-10-22T14:15:55.972Z,35.53
2022-10-22T14:18:28.912Z,31.13
2022-10-22T14:20:59.963Z,40.47
2022-10-22T14:23:29.769Z,56.60
2022-10-22T14:25:58.162Z,43.08
2022-10-22T14:28:25.796Z,44.97
2022-10-22T14:30:54.253Z,31.13
2022-10-22T14:33:30.371Z,29.08
2022-10-22T14:36:00.230Z,27.60
2022-10-22T14:38:28.499Z,43.20
2022-10-22T14:40:57.200Z,35.28
2022-10-22T14:43:28.285Z,30.42
2022-10-22T14:45:55.812Z,30.25
2022-10-22T14:48:24.096Z,35.33
2022-10-22T14:50:52.610Z,35.60
2022-10-22T14:53:20.205Z,31.90
2022-10-22T14:55:49.200Z,36.88
2022-10-22T14:58:17.013Z,27.15
2022-10-22T15:00:44.502Z,33.10
2022-10-22T15:03:12.151Z,34.35
2022-10-22T15:05:44.632Z,29.63
2022-10-22T15:08:15.034Z,26.67
2022-10-22T15:10:42.675Z,23.42
2022-10-22T15:13:10.240Z,23.17
2022-10-22T15:15:41.284Z,27.02
2022-10-22T15:18:08.983Z,28.15
2022-10-22T15:20:36.546Z,23.13
2022-10-22T15:23:04.254Z,28.33
2022-10-22T15:25:32.623Z,23.08
2022-10-22T15:28:02.063Z,25.45
2022-10-22T15:30:35.057Z,25.20
2022-10-22T15:33:02.606Z,27.23
2022-10-22T15:35:30.170Z,29.25
2022-10-22T15:37:57.702Z,30.23
2022-10-22T15:40:25.154Z,28.73
2022-10-22T15:42:52.661Z,25.85
2022-10-22T15:45:21.961Z,27.30
2022-10-22T15:47:49.929Z,27.67
2022-10-22T15:50:17.785Z,29.20
2022-10-22T15:52:45.340Z,28.40
2022-10-22T15:57:45.546Z,29.73
2022-10-22T16:00:14.036Z,32.25
2022-10-22T16:02:42.632Z,25.75
2022-10-22T16:05:10.153Z,26.50
2022-10-22T16:07:37.948Z,30.23
2022-10-22T16:10:07.641Z,27.10
2022-10-22T16:12:36.073Z,30.48
2022-10-22T16:15:04.111Z,29.52
2022-10-22T16:17:31.696Z,34.22
2022-10-22T16:19:59.196Z,28.60
2022-10-22T16:22:26.715Z,33.95
2022-10-22T16:24:54.438Z,33.33
2022-10-22T16:27:22.162Z,29.35
2022-10-22T16:29:49.737Z,29.80
2022-10-22T16:32:17.890Z,31.05
2022-10-22T16:34:45.446Z,30.63
2022-10-22T16:37:13.041Z,32.70
2022-10-22T16:39:40.589Z,37.03
2022-10-22T16:42:08.321Z,32.72
2022-10-22T16:44:35.834Z,30.45
2022-10-22T16:47:03.550Z,33.58
2022-10-22T16:49:31.153Z,33.53
2022-10-22T16:51:58.839Z,30.88
2022-10-22T16:54:27.731Z,36.15
2022-10-22T16:56:55.211Z,37.28
2022-10-22T16:59:22.992Z,31.67
2022-10-22T17:01:50.759Z,32.58
2022-10-22T17:04:18.894Z,37.92
2022-10-22T17:06:46.735Z,40.22
2022-10-22T17:09:14.646Z,37.10
2022-10-22T17:11:44.088Z,32.58
2022-10-22T17:14:12.583Z,36.65
2022-10-22T17:16:40.386Z,34.22
2022-10-22T17:19:08.209Z,37.67
2022-10-22T17:21:35.982Z,37.22
2022-10-22T17:24:04.053Z,37.90
2022-10-22T17:26:33.321Z,32.33
2022-10-22T17:29:02.126Z,39.42
2022-10-22T17:31:38.077Z,36.63
2022-10-22T17:34:14.808Z,38.10
2022-10-22T17:36:43.316Z,35.90
2022-10-22T17:39:16.577Z,34.65
2022-10-22T17:41:44.321Z,37.97
2022-10-22T17:44:12.378Z,39.47
2022-10-22T17:46:40.634Z,34.88
2022-10-22T17:49:17.183Z,36.47
2022-10-22T17:51:45.414Z,36.47
2022-10-22T17:54:13.984Z,36.65
2022-10-22T17:56:41.941Z,42.78
2022-10-22T17:59:14.569Z,38.65
2022-10-22T18:01:45.664Z,34.55
2022-10-22T18:04:16.328Z,35.03
2022-10-22T18:06:46.151Z,36.38
2022-10-22T18:09:18.428Z,35.72
2022-10-22T18:11:49.166Z,39.22
2022-10-22T18:14:18.589Z,40.38
2022-10-22T18:16:47.113Z,41.38
2022-10-22T18:19:22.953Z,48.63
2022-10-22T18:24:18.384Z,40.38
2022-10-22T18:26:46.143Z,44.05
2022-10-22T18:29:17.030Z,40.10
2022-10-22T18:31:45.032Z,37.95
2022-10-22T18:34:13.220Z,40.45
2022-10-22T18:36:41.904Z,37.97
2022-10-22T18:39:14.323Z,36.35
2022-10-22T18:41:43.247Z,40.83
2022-10-22T18:44:12.790Z,41.13
2022-10-22T18:46:40.983Z,37.78
2022-10-22T18:49:11.716Z,43.17
2022-10-22T18:51:39.415Z,43.28
2022-10-22T18:54:22.032Z,45.55
2022-10-22T18:56:52.404Z,39.08
2022-10-22T18:59:25.656Z,42.50
2022-10-22T19:01:56.043Z,40.65
2022-10-22T19:04:23.770Z,41.22
2022-10-22T19:06:51.560Z,41.45
2022-10-22T19:09:19.426Z,45.75
2022-10-22T19:11:47.436Z,51.08
2022-10-22T19:14:19.243Z,45.08
2022-10-22T19:16:47.060Z,49.67
2022-10-22T19:19:21.782Z,48.30
2022-10-22T19:21:49.570Z,54.05
2022-10-22T19:24:18.862Z,55.50
2022-10-22T19:26:47.647Z,45.45
2022-10-22T19:29:17.480Z,47.40
2022-10-22T19:31:45.912Z,49.42
2022-10-22T19:34:13.758Z,51.67
2022-10-22T19:36:41.387Z,57.55
2022-10-22T19:39:09.383Z,51.80
2022-10-22T19:41:37.350Z,53.72
2022-10-22T19:44:05.085Z,52.13
2022-10-22T19:46:32.962Z,52.97
2022-10-22T19:49:02.251Z,49.63
2022-10-22T19:51:31.387Z,52.35
2022-10-22T19:54:04.658Z,54.58
2022-10-22T19:56:34.041Z,58.80
2022-10-22T19:59:03.185Z,56.10
2022-10-22T20:01:34.680Z,57.40
2022-10-22T20:04:02.514Z,60.03
2022-10-22T20:06:30.797Z,57.67
2022-10-22T20:08:58.546Z,63.08
2022-10-22T20:11:29.518Z,62.67
2022-10-22T20:13:57.967Z,61.67
2022-10-22T20:16:29.677Z,66.82
2022-10-22T20:19:02.658Z,62.33
2022-10-22T20:21:30.741Z,67.78
2022-10-22T20:23:58.624Z,69.60
2022-10-22T20:26:28.198Z,60.78
2022-10-22T20:28:57.136Z,71.70
2022-10-22T20:31:27.853Z,71.97
2022-10-22T20:33:58.616Z,69.30
2022-10-22T20:36:27.317Z,62.17
2022-10-22T20:39:00.632Z,65.85
2022-10-22T20:41:29.623Z,57.03
2022-10-22T20:43:57.403Z,62.45
2022-10-22T20:46:34.727Z,61.30
2022-10-22T20:49:06.071Z,60.42
2022-10-22T20:51:36.026Z,60.90
2022-10-22T20:54:05.373Z,61.90
2022-10-22T20:56:34.644Z,61.70
2022-10-22T20:59:05.526Z,52.47
2022-10-22T21:01:38.722Z,53.92
2022-10-22T21:04:07.255Z,60.50
2022-10-22T21:06:38.064Z,53.83
2022-10-22T21:09:13.296Z,50.55
2022-10-22T21:11:42.978Z,53.38
2022-10-22T21:14:12.867Z,50.88
2022-10-22T21:16:45.379Z,54.20
2022-10-22T21:19:12.901Z,53.78
2022-10-22T21:21:40.565Z,55.38
2022-10-22T21:24:08.843Z,64.05
2022-10-22T21:26:38.940Z,70.80
2022-10-22T21:29:07.207Z,56.55
2022-10-22T21:31:35.079Z,56.88
2022-10-22T21:34:02.882Z,48.95
2022-10-22T21:36:30.355Z,58.90
2022-10-22T21:38:57.913Z,48.67
2022-10-22T21:41:25.432Z,49.83
2022-10-22T21:43:53.000Z,46.17
2022-10-22T21:46:23.408Z,45.65
2022-10-22T21:48:55.999Z,42.13
2022-10-22T21:51:25.509Z,45.13
2022-10-22T21:53:53.707Z,52.10
2022-10-22T21:56:24.701Z,51.85
2022-10-22T21:58:52.822Z,46.00
2022-10-22T22:01:21.029Z,47.28
2022-10-22T22:03:49.974Z,47.38
2022-10-22T22:06:21.365Z,45.83
2022-10-22T22:08:51.838Z,46.55
2022-10-22T22:11:25.480Z,49.00
2022-10-22T22:13:54.852Z,43.47
2022-10-22T22:16:28.411Z,47.67
2022-10-22T22:19:02.161Z,48.35
2022-10-22T22:21:29.813Z,45.13
2022-10-22T22:23:58.271Z,50.95
2022-10-22T22:26:29.854Z,46.28
2022-10-22T22:28:59.327Z,46.40
2022-10-22T22:31:28.259Z,43.97
2022-10-22T22:34:03.183Z,56.80
2022-10-22T22:36:40.139Z,60.78
2022-10-22T22:39:15.696Z,61.42
2022-10-22T22:41:44.220Z,62.10
2022-10-22T22:44:12.210Z,54.25
2022-10-22T22:46:40.237Z,60.20
2022-10-22T22:49:08.267Z,57.60
2022-10-22T22:51:36.019Z,61.33
2022-10-22T22:54:03.724Z,57.90
2022-10-22T22:56:34.528Z,61.13
2022-10-22T22:59:03.667Z,76.90
2022-10-22T23:01:36.560Z,64.10
2022-10-22T23:04:11.872Z,65.25
2022-10-22T23:06:39.754Z,64.03
2022-10-22T23:09:09.554Z,64.20
2022-10-22T23:11:38.308Z,71.80
2022-10-22T23:14:07.527Z,70.68
2022-10-22T23:16:37.784Z,74.38
2022-10-22T23:19:05.877Z,78.97
2022-10-22T23:21:35.914Z,71.30
2022-10-22T23:24:09.472Z,73.85
2022-10-22T23:26:40.845Z,67.05
2022-10-22T23:29:13.551Z,73.50
2022-10-22T23:31:42.326Z,72.75
2022-10-22T23:34:11.771Z,61.70
2022-10-22T23:36:39.819Z,70.78
2022-10-22T23:39:12.766Z,76.97
2022-10-22T23:41:40.300Z,73.28
2022-10-22T23:44:09.189Z,67.50
2022-10-22T23:46:38.536Z,78.40
2022-10-22T23:49:07.792Z,69.97
2022-10-22T23:51:36.197Z,76.50
2022-10-22T23:54:06.297Z,69.95
2022-10-22T23:56:33.821Z,69.65
2022-10-22T23:59:01.722Z,71.53
